Date,TemperatureHighF,TemperatureAvgF,TemperatureLowF,DewpointHighF,DewpointAvgF,DewpointLowF,HumidityHigh,HumidityAvg,HumidityLow,PressureMaxIn,PressureMinIn,WindSpeedMaxMPH,WindSpeedAvgMPH,GustSpeedMaxMPH,PrecipitationSumIn
2013-1-1,34.1,29.1,17.5,28.6,19.8,7.2,86,68,55,29.96,29.72,15,2,21,0.00
2013-1-2,27.5,16.6,5.4,18.6,8.5,-0.6,82,70,63,30.15,29.93,9,2,11,0.00
2013-1-3,23.5,12.2,0.0,8.8,1.7,-7.7,75,63,42,30.18,30.01,5,0,9,0.00
2013-1-4,35.9,25.1,9.1,26.8,19.0,3.6,93,77,67,30.01,29.83,11,2,15,0.00
2013-1-5,38.9,31.7,20.4,28.2,23.2,15.6,83,71,52,30.28,29.86,13,1,14,0.00
2013-1-6,39.3,29.5,20.4,31.3,24.9,16.0,90,83,71,30.25,29.97,8,0,13,0.01
2013-1-7,36.1,27.2,16.5,28.1,21.1,12.0,96,79,55,30.42,29.99,9,0,9,0.00
2013-1-8,41.2,26.0,11.8,31.4,20.7,7.2,96,80,66,30.40,30.29,10,0,12,0.07
2013-1-9,40.6,31.0,18.8,36.0,26.9,15.5,90,85,69,30.45,30.01,10,1,15,0.25
2013-1-10,43.2,38.1,28.0,32.4,28.0,24.3,86,67,54,30.57,30.06,12,2,21,0.27
2013-1-11,36.9,30.8,23.2,32.9,27.0,20.1,97,86,73,30.57,30.25,2,0,4,0.16
2013-1-12,40.7,36.0,33.5,40.7,35.8,32.7,100,99,97,30.25,30.15,1,0,2,0.12
2013-1-13,44.1,38.9,34.2,44.1,38.9,34.2,100,100,100,30.19,30.01,4,0,6,0.00
2013-1-14,53.2,43.1,36.7,49.9,40.4,31.5,100,91,67,30.29,29.89,7,1,13,0.00
2013-1-15,39.9,34.7,29.3,31.6,29.0,26.8,92,80,64,30.36,30.27,3,0,9,0.00
2013-1-16,33.6,31.7,29.9,32.7,30.5,27.2,99,95,88,30.28,29.84,0,0,1,0.03
2013-1-17,39.5,31.7,25.4,35.0,27.0,15.3,99,84,59,30.13,29.85,9,1,12,0.19
2013-1-18,27.6,20.1,14.2,15.6,6.6,1.3,76,56,42,30.46,30.10,11,2,14,0.00
2013-1-19,42.9,32.4,17.3,31.2,23.4,10.4,86,69,58,30.39,29.89,11,2,17,0.12
2013-1-20,47.6,37.3,26.9,34.9,27.4,14.7,85,68,47,29.97,29.56,18,3,25,0.03
2013-1-21,27.7,24.2,18.7,20.5,13.6,7.3,88,64,51,30.12,29.83,10,1,11,0.00
2013-1-22,23.2,18.9,11.7,19.8,9.6,0.9,88,68,48,30.11,29.80,9,2,13,0.00
2013-1-23,14.8,10.5,4.9,1.3,-4.3,-7.9,66,51,36,30.17,30.10,10,2,16,0.00
2013-1-24,18.5,10.0,1.4,-3.4,-6.6,-9.7,63,47,35,30.27,30.10,14,3,17,0.00
2013-1-25,22.5,15.7,7.9,10.3,-2.7,-9.2,68,44,32,30.35,30.10,10,2,14,0.00
2013-1-26,22.9,16.0,8.6,11.0,3.5,-3.2,78,59,35,30.27,30.06,10,2,16,0.00
2013-1-27,28.5,19.1,12.2,6.8,3.7,1.0,66,52,36,30.51,30.26,10,2,13,0.00
2013-1-28,28.3,21.9,12.6,23.3,14.9,3.2,91,75,53,30.50,30.06,3,0,6,0.00
2013-1-29,34.7,29.4,22.5,31.8,26.9,19.5,98,91,84,30.23,30.07,2,0,3,0.09
2013-1-30,53.5,40.8,32.5,53.5,40.6,31.7,100,99,97,30.18,29.46,9,0,9,0.21
2013-1-31,56.9,43.7,28.3,56.9,38.7,19.9,100,83,58,29.62,28.95,16,4,22,0.47